EPWAEPZG

Guest
Details From EPWA - WARSZAWA Okecie
To EPZG - ZIELONA GORA BABIMOST
Flight Number -
Tags decoded
Created
Modified
Stats Distance 193 nm / 357 km
Max Altitude 0 ft / 0 m
Waypoints 5
Social Downloads 0
Likes 0
Share VATSIM

Download

Looking for another format? Having issues loading an existing format? Contact us
Advertisement - Login to hide

Notes

Requested: EPWA LOLSI T174 INDIG L980 OBOLA EPZG Unmatched points: T174 L980

Route

EPWA LOLSI INDIG OBOLA EPZG

ID Type Via Altitude Latitude Longitude Leg Dist Tot Dist Heading (true) Name
O EPWA APT - 0 ft / 0 m 52.16509˚ 20.96692˚ - 0 nm - WARSZAWA Okecie
LOLSI FIX - 0 ft / 0 m 52.17747˚ 19.87139˚ 40 nm 40 nm 271° / 271° -
INDIG FIX - 0 ft / 0 m 51.99667˚ 18.00000˚ 69 nm 110 nm 262° / 260° -
OBOLA FIX - 0 ft / 0 m 52.19488˚ 16.20203˚ 67 nm 177 nm 281° / 279° -
O EPZG APT - 0 ft / 0 m 52.13863˚ 15.79840˚ 15 nm 192 nm 257° / 257° ZIELONA GORA BABIMOST

Altitude Profile

Advertisement - Login to hide

Weather


0- 5 10 15 20 25 30 35+ Temperature / ° C

Clouds and Precipitation
Forecast for 2017-12-17 12:00 UTC. Updated an hour ago

Ground ~20,000 ft ~40,000 ft Winds

EPWA

Details ICAO EPWA (WAW)
Name WARSZAWA Okecie
Region Poland
Timezone Europe/Warsaw (UTC+1.0)
Stats Elevation 328 ft / 100 m (AMSL)
Location 52.165091° 20.966923°
Runways 2
Magnetic Variation 5.802° E

METAR

EPWA 170800Z 23003KT 5000 BR FEW013 BKN020 01/00 Q1015 NOSIG

Decode

TAF

TAF TAF EPWA 170530Z 1706/1806 VRB03KT 7000 SCT030 TEMPO 1706/1709 4500 BR BKN009 BECMG 1708/1711 SCT020 BECMG 1718/1721 2000 BR TEMPO 1721/1806 0300 FZFG BKN001

Decode

Departure Runways

ID Width Length Bearing (true) Bearing (mag) Surface Threshold Offset Overrun Length
11 164 ft / 50 m 9,163 ft / 2,793 m 114.64° 108.84° Asphalt 0 ft / 0 m 476 ft / 145 m
15 197 ft / 60 m 12,112 ft / 3,692 m 151.85° 146.05° Asphalt 0 ft / 0 m 0 ft / 0 m
29 164 ft / 50 m 9,163 ft / 2,793 m 294.67° 288.87° Asphalt 1,608 ft / 490 m 0 ft / 0 m
33 197 ft / 60 m 12,112 ft / 3,692 m 331.87° 326.07° Asphalt 0 ft / 0 m 0 ft / 0 m

EPZG

Details ICAO EPZG (IEG)
Name ZIELONA GORA BABIMOST
Region Poland
Timezone Europe/Warsaw (UTC+1.0)
Stats Elevation 193 ft / 59 m (AMSL)
Location 52.138633° 15.798400°
Runways 1
Magnetic Variation 4.427° E

METAR

EPZG 170800Z 21007KT 5000 BR BKN007 02/01 Q1015

Decode

TAF

Not found

Destination Runways

ID Width Length Bearing (true) Bearing (mag) Surface Threshold Offset Overrun Length
06 197 ft / 60 m 8,169 ft / 2,490 m 64.50° 60.07° Concrete 0 ft / 0 m 0 ft / 0 m
24 197 ft / 60 m 8,169 ft / 2,490 m 244.52° 240.09° Concrete 0 ft / 0 m 0 ft / 0 m

Popular Alternatives